METAR Data
IDs: Format: Raw Decoded Include TAF

Data at: 1835 UTC 16 Oct 2021

KAPY 161815Z AUTO 36008KT 10SM SCT120 25/06 A3034 RMK AO2 T02450061 TSNO
KAPY 161755Z AUTO 35007G15KT 10SM CLR 24/06 A3035 RMK AO2 T02380059 10238 20210 TSNO
KAPY 161735Z AUTO 33006KT 10SM SCT120 23/06 A3036 RMK AO2 T02310063 TSNO
KAPY 161715Z AUTO 33007KT 10SM CLR 23/06 A3037 RMK AO2 T02300059 TSNO
KAPY 161655Z AUTO 35007KT 10SM CLR 23/06 A3037 RMK AO2 T02270056 TSNO
KAPY 161635Z AUTO 01009G15KT 10SM SCT090 SCT120 23/06 A3037 RMK AO2 T02270059 TSNO
KAPY 161615Z AUTO 01009G17KT 10SM BKN080 BKN090 23/06 A3037 RMK AO2 T02290060 TSNO
KAPY 161555Z AUTO 34011G15KT 10SM SCT070 BKN090 OVC110 22/07 A3038 RMK AO2 T02240068 TSNO
KAPY 161535Z AUTO 02009G14KT 10SM SCT070 OVC090 22/07 A3038 RMK AO2 T02190067 TSNO
KAPY 161515Z AUTO 36008KT 10SM OVC070 22/07 A3037 RMK AO2 T02170072 TSNO
KAPY 161455Z AUTO 36011G20KT 10SM OVC070 21/07 A3037 RMK AO2 T02130065 TSNO
KAPY 161435Z AUTO 36008G16KT 10SM OVC070 21/07 A3036 RMK AO2 T02120066 TSNO
KAPY 161415Z AUTO 01010G15KT 10SM OVC070 21/07 A3035 RMK AO2 T02110070 TSNO
KAPY 161355Z AUTO 36007KT 10SM OVC060 21/08 A3034 RMK AO2 T02100078 TSNO
KAPY 161335Z AUTO 36007KT 10SM OVC060 21/09 A3033 RMK AO2 T02110085 TSNO
KAPY 161315Z AUTO 36008KT 10SM OVC060 21/09 A3032 RMK AO2 T02110086 TSNO
KAPY 161255Z AUTO 36010KT 10SM OVC060 21/08 A3032 RMK AO2 T02120084 TSNO
KAPY 161235Z AUTO 36011G16KT 10SM OVC060 21/09 A3031 RMK AO2 T02130085 TSNO
KAPY 161215Z AUTO 35009G15KT 10SM OVC060 21/10 A3031 RMK AO2 T02130096 TSNO
KAPY 161155Z AUTO 36008G15KT 10SM OVC060 21/09 A3029 RMK AO2 60006 70006 T02120094 10256 20195 TSNO
KAPY 161135Z AUTO 35006G16KT 10SM OVC060 21/11 A3028 RMK AO2 T02090109 TSNO
KAPY 161115Z AUTO 35005KT 10SM OVC060 20/13 A3027 RMK AO2 T02010131 TSNO
KAPY 161055Z AUTO 36007KT 7SM RA SCT035 OVC050 20/13 A3026 RMK AO2 P0004 T01950128 TSNO
KAPY 161035Z AUTO 35011G15KT 10SM -RA OVC050 22/11 A3025 RMK AO2 T02230114 TSNO
KAPY 161015Z AUTO 36008KT 10SM OVC050 22/13 A3023 RMK AO2 T02210127 TSNO
KAPY 160955Z AUTO 36012G17KT 10SM OVC050 23/13 A3022 RMK AO2 T02300126 TSNO
KAPY 160935Z AUTO 01007KT 10SM OVC050 24/13 A3021 RMK AO2 T02350130 TSNO
KAPY 160915Z AUTO 01009KT 10SM OVC050 24/13 A3020 RMK AO2 T02350132 TSNO
KAPY 160855Z AUTO 01009G15KT 10SM OVC050 24/14 A3019 RMK AO2 60002 T02350135 TSNO
KAPY 160835Z AUTO 01012G16KT 10SM OVC050 24/14 A3018 RMK AO2 T02350140 TSNO
KAPY 160815Z AUTO 01008KT 10SM -RA OVC048 23/16 A3018 RMK AO2 T02310161 TSNO
KAPY 160755Z AUTO 02005KT 10SM +RA OVC046 24/16 A3018 RMK AO2 T02430162 TSNO
KAPY 160735Z AUTO 02013G18KT 10SM SCT031 OVC046 25/16 A3017 RMK AO2 T02480158 TSNO
KAPY 160715Z AUTO 03011G15KT 10SM SCT031 OVC044 25/18 A3016 RMK AO2 T02460184 TSNO
KAPY 160655Z AUTO 01005KT 10SM -RA OVC040 24/20 A3015 RMK AO2 T02410200 403610240 TSNO
KAPY 160635Z AUTO 01005KT 10SM -DZ OVC036 24/20 A3015 RMK AO2 T02410198 TSNO
KAPY 160615Z AUTO 03009G18KT 10SM RA BKN034 OVC043 25/19 A3014 RMK AO2 T02530189 TSNO
KAPY 160555Z AUTO 05009KT 10SM BKN038 OVC045 26/19 A3014 RMK AO2 T02570189 10291 20257 TSNO
KAPY 160535Z AUTO 04010G14KT 10SM OVC036 26/19 A3012 RMK AO2 T02600190 TSNO
KAPY 160515Z AUTO 03012G16KT 10SM BKN036 26/19 A3012 RMK AO2 T02620189 TSNO
KAPY 160455Z AUTO 03012G18KT 10SM CLR 27/19 A3011 RMK AO2 T02650187 TSNO
KAPY 160435Z AUTO 04009G18KT 10SM SCT040 SCT045 27/18 A3009 RMK AO2 T02700178 TSNO
KAPY 160415Z AUTO 04013G19KT 10SM OVC040 28/18 A3009 RMK AO2 T02760180 TSNO
KAPY 160355Z AUTO 03010G15KT 10SM OVC040 27/20 A3010 RMK AO2 T02730203 TSNO
KAPY 160335Z AUTO 00000KT 10SM BKN042 OVC047 27/21 A3009 RMK AO2 T02700213 TSNO
KAPY 160315Z AUTO 00000KT 10SM SCT033 SCT042 SCT047 27/21 A3007 RMK AO2 T02700211 TSNO
KAPY 160255Z AUTO 10003KT 10SM CLR 27/21 A3005 RMK AO2 T02710211 TSNO
KAPY 160235Z AUTO 05007KT 10SM CLR 27/21 A3003 RMK AO2 T02720212 TSNO
KAPY 160215Z AUTO 09003KT 10SM CLR 28/22 A3000 RMK AO2 T02750220 TSNO
KAPY 160155Z AUTO 00000KT 10SM CLR 28/22 A2999 RMK AO2 T02790216 TSNO
KAPY 160135Z AUTO 00000KT 10SM SCT055 SCT110 29/21 A2999 RMK AO2 T02860212 TSNO
KAPY 160115Z AUTO 07003KT 10SM SCT055 BKN110 29/22 A2999 RMK AO2 T02900215 TSNO
KAPY 160055Z AUTO 06005KT 10SM SCT110 29/22 A2998 RMK AO2 T02900223 TSNO
KAPY 160035Z AUTO 07004KT 10SM CLR 29/23 A2994 RMK AO2 T02900225 TSNO
KAPY 160015Z AUTO 06003KT 10SM CLR 29/23 A2993 RMK AO2 T02910225 TSNO
KAPY 152355Z AUTO 00000KT 10SM CLR 29/23 A2992 RMK AO2 T02910226 10361 20291 TSNO
KAPY 152335Z AUTO 04005KT 10SM CLR 29/23 A2993 RMK AO2 T02920227 TSNO
KAPY 152315Z AUTO 05004KT 10SM CLR 30/23 A2993 RMK AO2 T02960231 TSNO
KAPY 152255Z AUTO 05003KT 10SM CLR 30/23 A2992 RMK AO2 T03010226 TSNO
KAPY 152235Z AUTO 00000KT 10SM CLR 30/22 A2991 RMK AO2 T03000224 TSNO
KAPY 152215Z AUTO 09005KT 10SM CLR 31/23 A2991 RMK AO2 T03060227 TSNO
KAPY 152135Z AUTO 05008G18KT 10SM -RA SCT050 BKN060 OVC070 30/22 A2989 RMK AO2 T03040224 TSNO
KAPY 152115Z AUTO 04012G16KT 10SM OVC050 32/20 A2989 RMK AO2 T03220202 TSNO
KAPY 152015Z AUTO 00000KT 10SM SCT060 36/23 A2989 RMK AO2 T03570227 TSNO
KAPY 152000Z AUTO 26006KT 10SM SCT065 SCT070 35/23 A2989 RMK AO2 T03480230 TSNO
KAPY 151940Z AUTO 28006KT 7SM SCT065 SCT070 SCT110 35/23 A2989 RMK AO2 T03460233 TSNO
KAPY 151920Z AUTO 09003KT 10SM SCT038 SCT065 SCT120 35/23 A2990 RMK AO2 T03480228 TSNO
KAPY 151835Z AUTO 00000KT 7SM SCT034 34/24 A2992 RMK AO2 T03420239 TSNO
KAPY 151810Z AUTO 00000KT 7SM SCT027 34/24 A2993 RMK AO2 T03380242 TSNO
KAPY 151755Z AUTO 14003KT 7SM SCT025 33/25 A2994 RMK AO2 T03310245 10331 20265 TSNO
KAPY 151735Z AUTO 20004KT 7SM BKN021 33/25 A2995 RMK AO2 T03280245 TSNO
KAPY 151715Z AUTO 17004KT 7SM OVC019 31/25 A2995 RMK AO2 T03130245 TSNO
KAPY 151655Z AUTO 16003KT 7SM OVC017 30/25 A2996 RMK AO2 T03020247 TSNO
KAPY 151635Z AUTO 15003KT 7SM OVC015 30/25 A2996 RMK AO2 T03000247 TSNO
KAPY 151615Z AUTO 13003KT 7SM OVC015 30/25 A2996 RMK AO2 T02960247 TSNO
KAPY 151555Z AUTO 15005KT 7SM OVC013 29/25 A2996 RMK AO2 T02940247 TSNO
KAPY 151535Z AUTO 13004KT 7SM OVC013 29/25 A2995 RMK AO2 T02910250 TSNO
KAPY 151515Z AUTO 13005KT 7SM OVC011 29/25 A2995 RMK AO2 T02880250 TSNO
KAPY 151455Z AUTO 12004KT 7SM OVC009 29/25 A2994 RMK AO2 T02850251 TSNO
KAPY 151435Z AUTO 10005KT 7SM OVC009 28/25 A2993 RMK AO2 T02810251 TSNO
KAPY 151415Z AUTO 11005KT 7SM OVC009 28/25 A2992 RMK AO2 T02800251 TSNO
KAPY 151355Z AUTO 11005KT 7SM OVC009 28/25 A2991 RMK AO2 T02750252 TSNO
KAPY 151335Z AUTO 10005KT 7SM OVC011 27/25 A2990 RMK AO2 T02710253 TSNO
KAPY 151315Z AUTO 10004KT 7SM OVC011 27/25 A2989 RMK AO2 T02680252 TSNO
KAPY 151255Z AUTO 10003KT 7SM OVC009 27/25 A2989 RMK AO2 T02670252 TSNO
KAPY 151235Z AUTO 00000KT 7SM OVC009 27/25 A2988 RMK AO2 T02670252 TSNO
KAPY 151215Z AUTO 09003KT 7SM OVC011 27/25 A2988 RMK AO2 T02650251 TSNO
KAPY 151155Z AUTO 09003KT 5SM BR OVC011 27/25 A2987 RMK AO2 T02650251 10275 20260 TSNO
KAPY 151135Z AUTO 08003KT 5SM BR OVC011 26/25 A2987 RMK AO2 T02630252 TSNO
KAPY 151115Z AUTO 00000KT 5SM BR OVC011 26/25 A2986 RMK AO2 T02610251 TSNO
KAPY 151055Z AUTO 00000KT 5SM BR BKN011 26/25 A2985 RMK AO2 T02600250 TSNO
KAPY 151035Z AUTO 00000KT 5SM BR CLR 26/25 A2985 RMK AO2 T02610250 TSNO
KAPY 151015Z AUTO 00000KT 5SM BR CLR 26/25 A2984 RMK AO2 T02630250 TSNO
KAPY 150955Z AUTO 11003KT 7SM CLR 27/25 A2984 RMK AO2 T02650250 TSNO
KAPY 150935Z AUTO 00000KT 7SM CLR 27/25 A2983 RMK AO2 T02650250 TSNO
KAPY 150915Z AUTO 00000KT 7SM CLR 27/25 A2983 RMK AO2 T02660250 TSNO
KAPY 150855Z AUTO 12003KT 7SM CLR 27/25 A2983 RMK AO2 T02700250 TSNO
KAPY 150835Z AUTO 13003KT 7SM CLR 27/25 A2983 RMK AO2 T02700250 TSNO
KAPY 150815Z AUTO 13003KT 7SM CLR 27/25 A2983 RMK AO2 T02720251 TSNO
KAPY 150755Z AUTO 14005KT 7SM CLR 27/25 A2983 RMK AO2 T02710250 TSNO
KAPY 150735Z AUTO 14005KT 7SM CLR 27/25 A2983 RMK AO2 T02710249 TSNO
KAPY 150715Z AUTO 14004KT 7SM CLR 27/25 A2983 RMK AO2 T02710245 TSNO
KAPY 150655Z AUTO 13005KT 7SM CLR 27/24 A2983 RMK AO2 T02720242 403820272 TSNO